createdAt,value
2022-10-17T00:01:47.495Z,99458.13
2022-10-17T00:04:18.100Z,99457.53
2022-10-17T00:06:47.887Z,99459.88
2022-10-17T00:09:18.856Z,99455.72
2022-10-17T00:11:50.738Z,99454.75
2022-10-17T00:14:19.582Z,99459.63
2022-10-17T00:16:50.008Z,99460.25
2022-10-17T00:19:19.902Z,99455.47
2022-10-17T00:21:51.001Z,99456.13
2022-10-17T00:24:20.170Z,99459.75
2022-10-17T00:26:51.777Z,99470.69
2022-10-17T00:29:21.561Z,99470.53
2022-10-17T00:34:24.693Z,99470.56
2022-10-17T00:36:54.803Z,99474.22
2022-10-17T00:39:26.180Z,99469.84
2022-10-17T00:41:58.130Z,99470.13
2022-10-17T00:44:54.779Z,99472.34
2022-10-17T00:47:28.660Z,99472.81
2022-10-17T00:49:59.649Z,99476.22
2022-10-17T00:52:32.849Z,99480.06
2022-10-17T00:55:17.658Z,99466.06
2022-10-17T00:57:49.638Z,99473.94
2022-10-17T01:00:20.458Z,99481.97
2022-10-17T01:02:50.202Z,99480.22
2022-10-17T01:05:20.424Z,99479.41
2022-10-17T01:07:51.005Z,99477.63
2022-10-17T01:13:11.283Z,99477.22
2022-10-17T01:16:22.064Z,99482.19
2022-10-17T01:19:28.846Z,99481.97
2022-10-17T01:22:01.057Z,99485.53
2022-10-17T01:24:50.275Z,99485.94
2022-10-17T01:27:57.160Z,99484.94
2022-10-17T01:30:43.288Z,99489.16
2022-10-17T01:34:00.035Z,99493.59
2022-10-17T01:37:04.188Z,99482.78
2022-10-17T01:40:21.096Z,99490.00
2022-10-17T01:43:09.643Z,99481.56
2022-10-17T01:45:58.021Z,99499.03
2022-10-17T01:48:29.133Z,99498.88
2022-10-17T01:51:21.523Z,99496.34
2022-10-17T01:53:59.623Z,99498.88
2022-10-17T01:56:32.109Z,99501.94
2022-10-17T01:59:09.985Z,99506.41
2022-10-17T02:01:38.321Z,99506.56
2022-10-17T02:04:07.962Z,99500.31
2022-10-17T02:06:36.685Z,99495.31
2022-10-17T02:09:21.280Z,99505.69
2022-10-17T02:12:00.240Z,99498.66
2022-10-17T02:14:54.344Z,99496.44
2022-10-17T02:17:33.638Z,99492.72
2022-10-17T02:20:24.806Z,99492.28
2022-10-17T02:23:04.381Z,99489.22
2022-10-17T02:25:46.625Z,99490.09
2022-10-17T02:28:31.039Z,99493.94
2022-10-17T02:31:01.762Z,99491.47
2022-10-17T02:33:35.930Z,99491.31
2022-10-17T02:36:07.743Z,99497.84
2022-10-17T02:38:35.075Z,99500.59
2022-10-17T02:41:02.285Z,99498.53
2022-10-17T02:43:29.390Z,99503.81
2022-10-17T02:45:56.878Z,99504.91
2022-10-17T02:48:43.001Z,99506.72
2022-10-17T02:51:43.508Z,99507.56
2022-10-17T02:54:18.012Z,99513.94
2022-10-17T02:56:51.310Z,99501.44
2022-10-17T02:59:21.295Z,99505.91
2022-10-17T03:01:50.054Z,99505.22
2022-10-17T03:04:16.922Z,99507.72
2022-10-17T03:06:45.030Z,99515.88
2022-10-17T03:09:12.462Z,99517.53
2022-10-17T03:11:39.265Z,99515.59
2022-10-17T03:14:06.212Z,99511.56
2022-10-17T03:16:33.289Z,99507.28
2022-10-17T03:19:00.103Z,99519.34
2022-10-17T03:21:27.283Z,99515.88
2022-10-17T03:23:54.167Z,99517.25
2022-10-17T03:26:21.398Z,99515.72
2022-10-17T03:28:51.917Z,99517.53
2022-10-17T03:31:21.978Z,99518.66
2022-10-17T03:33:49.188Z,99519.63
2022-10-17T03:36:18.130Z,99522.81
2022-10-17T03:38:45.452Z,99527.78
2022-10-17T03:41:12.601Z,99517.00
2022-10-17T03:43:40.443Z,99522.81
2022-10-17T03:46:07.858Z,99512.84
2022-10-17T03:48:34.771Z,99517.13
2022-10-17T03:51:07.031Z,99523.91
2022-10-17T03:53:34.615Z,99518.34
2022-10-17T03:56:19.395Z,99521.41
2022-10-17T03:58:46.310Z,99524.47
2022-10-17T04:01:15.053Z,99530.16
2022-10-17T04:03:42.750Z,99535.38
2022-10-17T04:06:12.555Z,99532.50
2022-10-17T04:08:39.978Z,99533.31
2022-10-17T04:11:08.777Z,99529.56
2022-10-17T04:13:36.211Z,99530.13
2022-10-17T04:16:06.585Z,99526.56
2022-10-17T04:18:33.681Z,99524.72
2022-10-17T04:21:07.628Z,99533.47
2022-10-17T04:23:35.193Z,99529.44
2022-10-17T04:26:03.773Z,99533.19
2022-10-17T04:28:31.139Z,99537.22
2022-10-17T04:30:59.833Z,99531.94
2022-10-17T04:33:26.544Z,99537.63
2022-10-17T04:36:00.974Z,99532.50
2022-10-17T04:38:28.694Z,99540.22
2022-10-17T04:41:04.038Z,99544.94
2022-10-17T04:43:32.395Z,99557.13
2022-10-17T04:45:59.792Z,99552.28
2022-10-17T04:48:26.624Z,99552.72
2022-10-17T04:51:01.318Z,99550.44
2022-10-17T04:53:28.722Z,99556.00
2022-10-17T04:55:55.576Z,99557.91
2022-10-17T04:58:23.229Z,99565.13
2022-10-17T05:00:50.164Z,99556.66
2022-10-17T05:03:17.215Z,99555.28
2022-10-17T05:05:44.205Z,99568.19
2022-10-17T05:08:11.614Z,99568.97
2022-10-17T05:10:42.371Z,99567.59
2022-10-17T05:13:10.126Z,99564.19
2022-10-17T05:15:38.251Z,99568.78
2022-10-17T05:18:07.381Z,99554.09
2022-10-17T05:20:35.811Z,99564.78
2022-10-17T05:23:05.639Z,99566.34
2022-10-17T05:25:37.088Z,99561.09
2022-10-17T05:28:06.219Z,99572.03
2022-10-17T05:30:36.805Z,99573.97
2022-10-17T05:33:06.430Z,99574.53
2022-10-17T05:35:36.804Z,99575.50
2022-10-17T05:38:06.436Z,99577.69
2022-10-17T05:40:36.408Z,99572.22
2022-10-17T05:43:08.071Z,99575.63
2022-10-17T05:45:39.874Z,99576.31
2022-10-17T05:48:10.473Z,99573.00
2022-10-17T05:50:38.793Z,99573.13
2022-10-17T05:53:08.481Z,99575.50
2022-10-17T05:55:39.517Z,99562.13
2022-10-17T05:58:14.302Z,99580.22
2022-10-17T06:00:57.798Z,99586.97
2022-10-17T06:03:26.689Z,99579.78
2022-10-17T06:05:56.906Z,99593.25
2022-10-17T06:08:26.205Z,99587.81
2022-10-17T06:10:55.681Z,99593.63
2022-10-17T06:13:24.038Z,99591.00
2022-10-17T06:15:52.972Z,99602.63
2022-10-17T06:18:19.856Z,99601.94
2022-10-17T06:20:47.100Z,99606.63
2022-10-17T06:23:15.560Z,99609.28
2022-10-17T06:25:42.797Z,99614.56
2022-10-17T06:28:12.068Z,99622.59
2022-10-17T06:30:42.518Z,99616.81
2022-10-17T06:33:09.993Z,99618.47
2022-10-17T06:35:36.829Z,99634.13
2022-10-17T06:38:05.570Z,99618.47
2022-10-17T06:40:34.559Z,99633.66
2022-10-17T06:43:01.878Z,99643.22
2022-10-17T06:45:29.333Z,99643.94
2022-10-17T06:47:56.976Z,99646.44
2022-10-17T06:50:24.729Z,99657.50
2022-10-17T06:52:58.065Z,99652.81
2022-10-17T06:55:27.114Z,99646.88
2022-10-17T06:57:57.580Z,99651.91
2022-10-17T07:00:27.212Z,99640.56
2022-10-17T07:02:56.672Z,99645.13
2022-10-17T07:05:27.511Z,99644.75
2022-10-17T07:07:57.228Z,99648.06
2022-10-17T07:10:27.679Z,99646.28
2022-10-17T07:12:58.295Z,99651.44
2022-10-17T07:15:26.976Z,99654.78
2022-10-17T07:17:54.829Z,99652.56
2022-10-17T07:20:22.624Z,99652.13
2022-10-17T07:22:49.747Z,99647.84
2022-10-17T07:25:18.025Z,99657.84
2022-10-17T07:27:46.700Z,99657.00
2022-10-17T07:30:16.425Z,99665.50
2022-10-17T07:32:45.909Z,99665.34
2022-10-17T07:35:14.429Z,99665.44
2022-10-17T07:37:41.304Z,99663.09
2022-10-17T07:40:09.934Z,99658.63
2022-10-17T07:45:07.462Z,99657.03
2022-10-17T07:47:38.415Z,99663.91
2022-10-17T07:50:06.737Z,99662.59
2022-10-17T07:52:36.028Z,99653.91
2022-10-17T07:55:02.909Z,99666.38
2022-10-17T07:57:30.305Z,99661.66
2022-10-17T07:59:59.707Z,99660.13
2022-10-17T08:02:28.935Z,99657.28
2022-10-17T08:07:31.291Z,99658.53
2022-10-17T08:10:00.786Z,99652.22
2022-10-17T08:12:32.700Z,99651.47
2022-10-17T08:15:03.443Z,99655.56
2022-10-17T08:17:30.699Z,99661.50
2022-10-17T08:20:00.849Z,99657.47
2022-10-17T08:22:30.046Z,99658.91
2022-10-17T08:25:00.352Z,99654.78
2022-10-17T08:27:29.581Z,99661.09
2022-10-17T08:29:57.375Z,99658.78
2022-10-17T08:32:27.934Z,99660.13
2022-10-17T08:34:56.439Z,99652.84
2022-10-17T08:37:23.856Z,99651.00
2022-10-17T08:39:51.567Z,99658.13
2022-10-17T08:43:00.786Z,99650.81
2022-10-17T08:45:52.906Z,99654.75
2022-10-17T08:48:25.825Z,99650.53
2022-10-17T08:51:03.305Z,99651.38
2022-10-17T08:53:36.182Z,99648.84
2022-10-17T08:56:48.539Z,99644.31
2022-10-17T08:59:24.206Z,99642.28
2022-10-17T09:02:04.968Z,99644.84
2022-10-17T09:05:16.390Z,99639.59
2022-10-17T09:08:02.848Z,99645.41
2022-10-17T09:10:52.177Z,99644.44
2022-10-17T09:13:58.155Z,99636.00
2022-10-17T09:16:39.684Z,99630.94
2022-10-17T09:19:31.915Z,99622.97
2022-10-17T09:22:13.003Z,99627.13
2022-10-17T09:24:46.013Z,99623.47
2022-10-17T09:27:24.782Z,99630.06
2022-10-17T09:29:55.978Z,99632.75
2022-10-17T09:32:27.149Z,99632.66
2022-10-17T09:34:56.290Z,99628.88
2022-10-17T09:37:30.922Z,99631.25
2022-10-17T09:39:59.507Z,99630.09
2022-10-17T09:42:29.187Z,99623.28
2022-10-17T09:45:06.648Z,99626.50
2022-10-17T09:50:29.567Z,99632.59
2022-10-17T09:53:08.814Z,99629.59
2022-10-17T09:55:46.893Z,99623.53
2022-10-17T09:58:17.048Z,99628.38
2022-10-17T10:00:48.592Z,99621.22
2022-10-17T10:03:24.070Z,99619.63
2022-10-17T10:06:06.371Z,99632.03
2022-10-17T10:08:59.743Z,99635.31
2022-10-17T10:11:55.094Z,99641.97
2022-10-17T10:14:37.150Z,99641.00
2022-10-17T10:17:07.805Z,99644.75
2022-10-17T10:19:38.502Z,99644.81
2022-10-17T10:22:16.906Z,99646.91
2022-10-17T10:24:45.115Z,99656.88
2022-10-17T10:27:19.208Z,99646.84
2022-10-17T10:29:54.052Z,99656.13
2022-10-17T10:32:28.128Z,99640.78
2022-10-17T10:35:09.586Z,99650.28
2022-10-17T10:37:44.022Z,99654.66
2022-10-17T10:40:23.105Z,99656.09
2022-10-17T10:42:54.908Z,99663.31
2022-10-17T10:45:46.970Z,99657.16
2022-10-17T10:48:30.261Z,99658.84
2022-10-17T10:51:06.581Z,99661.13
2022-10-17T10:53:49.196Z,99659.47
2022-10-17T10:56:24.595Z,99657.22
2022-10-17T10:59:03.045Z,99655.34
2022-10-17T11:01:50.339Z,99665.88
2022-10-17T11:04:48.694Z,99653.28
2022-10-17T11:07:26.452Z,99655.50
2022-10-17T11:10:18.445Z,99658.81
2022-10-17T11:13:05.798Z,99648.00
2022-10-17T11:15:46.482Z,99650.69
2022-10-17T11:18:36.719Z,99640.16
2022-10-17T11:21:30.679Z,99633.75
2022-10-17T11:24:28.230Z,99651.88
2022-10-17T11:27:15.412Z,99658.47
2022-10-17T11:29:49.681Z,99648.97
2022-10-17T11:32:27.719Z,99648.38
2022-10-17T11:35:20.624Z,99645.06
2022-10-17T11:38:18.836Z,99639.66
2022-10-17T11:40:51.036Z,99643.13
2022-10-17T11:43:30.056Z,99643.94
2022-10-17T11:46:04.127Z,99646.84
2022-10-17T11:48:37.148Z,99646.59
2022-10-17T11:54:09.844Z,99641.81
2022-10-17T11:57:24.417Z,99645.25
2022-10-17T12:00:35.811Z,99650.78
2022-10-17T12:03:15.979Z,99639.22
2022-10-17T12:05:51.854Z,99649.53
2022-10-17T12:08:57.311Z,99641.25
2022-10-17T12:11:39.349Z,99635.84
2022-10-17T12:14:39.800Z,99644.75
2022-10-17T12:17:30.009Z,99641.81
2022-10-17T12:20:25.328Z,99641.19
2022-10-17T12:23:14.331Z,99656.41
2022-10-17T12:26:01.564Z,99642.78
2022-10-17T12:28:50.892Z,99651.59
2022-10-17T12:31:34.035Z,99647.25
2022-10-17T12:34:04.326Z,99649.75
2022-10-17T12:36:34.194Z,99649.31
2022-10-17T12:39:47.579Z,99654.28
2022-10-17T12:42:35.731Z,99659.88
2022-10-17T12:45:18.248Z,99653.03
2022-10-17T12:47:50.627Z,99668.13
2022-10-17T12:50:56.532Z,99667.50
2022-10-17T12:53:38.825Z,99659.59
2022-10-17T12:56:10.060Z,99654.22
2022-10-17T12:58:41.128Z,99658.31
2022-10-17T13:01:24.101Z,99650.72
2022-10-17T13:03:57.243Z,99646.44
2022-10-17T13:06:28.027Z,99660.47
2022-10-17T13:09:03.470Z,99663.19
2022-10-17T13:11:35.410Z,99659.13
2022-10-17T13:14:14.684Z,99668.44
2022-10-17T13:16:55.949Z,99662.53
2022-10-17T13:19:30.804Z,99662.50
2022-10-17T13:22:06.946Z,99655.25
2022-10-17T13:24:43.535Z,99669.75
2022-10-17T13:27:33.882Z,99655.16
2022-10-17T13:30:22.118Z,99664.81
2022-10-17T13:32:48.973Z,99652.84
2022-10-17T13:35:41.951Z,99667.53
2022-10-17T13:38:14.723Z,99665.22
2022-10-17T13:40:49.915Z,99664.47
2022-10-17T13:43:21.187Z,99674.53
2022-10-17T13:46:19.339Z,99673.13
2022-10-17T13:48:52.809Z,99670.25
2022-10-17T13:51:23.502Z,99663.22
2022-10-17T13:53:53.454Z,99653.72
2022-10-17T13:56:28.979Z,99662.41
2022-10-17T13:59:06.485Z,99649.34
2022-10-17T14:01:34.842Z,99659.25
2022-10-17T14:04:19.494Z,99666.31
2022-10-17T14:06:52.128Z,99671.88
2022-10-17T14:09:29.181Z,99669.66
2022-10-17T14:12:10.658Z,99664.78
2022-10-17T14:15:08.724Z,99661.72
2022-10-17T14:17:32.452Z,99659.44
2022-10-17T14:20:40.414Z,99662.31
2022-10-17T14:23:20.871Z,99665.88
2022-10-17T14:25:47.494Z,99663.88
2022-10-17T14:28:19.401Z,99666.75
2022-10-17T14:30:56.842Z,99660.19
2022-10-17T14:33:32.084Z,99663.94
2022-10-17T14:36:03.734Z,99674.28
2022-10-17T14:38:34.168Z,99672.44
2022-10-17T14:41:41.795Z,99669.75
2022-10-17T14:44:21.085Z,99666.44
2022-10-17T14:46:54.565Z,99670.38
2022-10-17T14:49:29.110Z,99664.84
2022-10-17T14:52:20.059Z,99667.31
2022-10-17T14:54:52.760Z,99674.72
2022-10-17T14:57:30.579Z,99678.44
2022-10-17T15:00:00.115Z,99672.28
2022-10-17T15:02:30.492Z,99684.22
2022-10-17T15:05:01.833Z,99691.44
2022-10-17T15:07:29.787Z,99696.41
2022-10-17T15:10:01.711Z,99704.44
2022-10-17T15:12:33.125Z,99698.44
2022-10-17T15:15:00.478Z,99706.09
2022-10-17T15:17:30.992Z,99708.13
2022-10-17T15:20:05.192Z,99698.25
2022-10-17T15:22:32.761Z,99698.25
2022-10-17T15:25:04.048Z,99702.59
2022-10-17T15:27:33.689Z,99692.88
2022-10-17T15:30:04.436Z,99686.28
2022-10-17T15:32:33.940Z,99697.00
2022-10-17T15:35:04.457Z,99689.56
2022-10-17T15:37:38.110Z,99687.31
2022-10-17T15:40:16.608Z,99692.00
2022-10-17T15:42:45.668Z,99692.44
2022-10-17T15:45:16.433Z,99691.19
2022-10-17T15:47:55.386Z,99692.19
2022-10-17T15:50:26.569Z,99696.91
2022-10-17T15:52:57.561Z,99708.22
2022-10-17T15:55:30.597Z,99706.78
2022-10-17T15:58:00.557Z,99705.91
2022-10-17T16:00:30.767Z,99707.56
2022-10-17T16:03:01.390Z,99708.94
2022-10-17T16:05:31.003Z,99713.25
2022-10-17T16:08:00.958Z,99721.28
2022-10-17T16:10:32.519Z,99729.84
2022-10-17T16:13:02.295Z,99721.94
2022-10-17T16:15:32.050Z,99728.28
2022-10-17T16:18:05.847Z,99737.75
2022-10-17T16:20:36.340Z,99748.81
2022-10-17T16:23:05.724Z,99751.25
2022-10-17T16:25:34.405Z,99746.19
2022-10-17T16:28:05.417Z,99748.88
2022-10-17T16:30:34.629Z,99755.59
2022-10-17T16:33:05.654Z,99761.56
2022-10-17T16:35:38.205Z,99757.59
2022-10-17T16:38:11.100Z,99763.72
2022-10-17T16:40:42.676Z,99764.94
2022-10-17T16:43:15.250Z,99773.09
2022-10-17T16:45:47.007Z,99773.38
2022-10-17T16:48:14.166Z,99771.88
2022-10-17T16:50:46.808Z,99777.66
2022-10-17T16:53:19.395Z,99777.78
2022-10-17T16:56:02.316Z,99783.13
2022-10-17T16:58:33.664Z,99781.91
2022-10-17T17:01:07.178Z,99792.91
2022-10-17T17:03:39.284Z,99789.97
2022-10-17T17:06:10.875Z,99792.19
2022-10-17T17:08:40.873Z,99794.81
2022-10-17T17:11:09.411Z,99795.91
2022-10-17T17:13:37.575Z,99792.41
2022-10-17T17:16:15.419Z,99794.16
2022-10-17T17:18:49.953Z,99790.38
2022-10-17T17:21:25.596Z,99800.31
2022-10-17T17:24:00.843Z,99812.44
2022-10-17T17:26:32.463Z,99816.53
2022-10-17T17:29:03.784Z,99820.81
2022-10-17T17:31:34.807Z,99815.69
2022-10-17T17:34:04.308Z,99812.28
2022-10-17T17:36:36.166Z,99825.47
2022-10-17T17:39:13.266Z,99828.84
2022-10-17T17:41:45.697Z,99826.47
2022-10-17T17:44:16.674Z,99819.38
2022-10-17T17:46:49.268Z,99822.88
2022-10-17T17:49:17.468Z,99822.06
2022-10-17T17:51:51.159Z,99827.81
2022-10-17T17:54:19.285Z,99837.78
2022-10-17T17:56:49.507Z,99840.75
2022-10-17T17:59:23.141Z,99840.13
2022-10-17T18:01:54.901Z,99848.16
2022-10-17T18:04:25.418Z,99844.53
2022-10-17T18:06:53.914Z,99850.22
2022-10-17T18:09:27.153Z,99851.22
2022-10-17T18:11:59.379Z,99850.56
2022-10-17T18:14:31.162Z,99852.25
2022-10-17T18:17:03.589Z,99846.94
2022-10-17T18:19:34.601Z,99849.78
2022-10-17T18:22:06.623Z,99856.28
2022-10-17T18:24:38.078Z,99852.78
2022-10-17T18:27:08.985Z,99857.78
2022-10-17T18:29:38.199Z,99857.13
2022-10-17T18:32:05.377Z,99848.03
2022-10-17T18:34:36.388Z,99851.81
2022-10-17T18:37:10.345Z,99845.16
2022-10-17T18:39:38.535Z,99840.19
2022-10-17T18:42:11.048Z,99853.13
2022-10-17T18:44:47.955Z,99858.31
2022-10-17T18:47:20.204Z,99858.66
2022-10-17T18:49:52.965Z,99861.47
2022-10-17T18:52:22.287Z,99863.63
2022-10-17T18:54:54.281Z,99866.94
2022-10-17T18:57:26.041Z,99868.09
2022-10-17T18:59:56.725Z,99872.25
2022-10-17T19:02:25.616Z,99872.44
2022-10-17T19:04:56.691Z,99871.75
2022-10-17T19:07:24.406Z,99870.28
2022-10-17T19:09:55.622Z,99877.56
2022-10-17T19:12:26.396Z,99878.91
2022-10-17T19:14:56.843Z,99874.25
2022-10-17T19:17:26.309Z,99874.25
2022-10-17T19:19:57.039Z,99883.19
2022-10-17T19:22:25.461Z,99880.88
2022-10-17T19:24:56.054Z,99877.19
2022-10-17T19:27:28.675Z,99886.47
2022-10-17T19:29:57.863Z,99883.44
2022-10-17T19:32:28.318Z,99892.72
2022-10-17T19:35:00.360Z,99893.72
2022-10-17T19:37:33.228Z,99893.06
2022-10-17T19:40:07.022Z,99898.03
2022-10-17T19:42:39.112Z,99887.41
2022-10-17T19:45:08.307Z,99890.00
2022-10-17T19:47:43.038Z,99898.13
2022-10-17T19:50:11.825Z,99891.47
2022-10-17T19:52:40.115Z,99891.84
2022-10-17T19:55:11.259Z,99895.81
2022-10-17T19:57:42.963Z,99894.16
2022-10-17T20:00:13.870Z,99893.31
2022-10-17T20:02:42.026Z,99884.69
2022-10-17T20:05:19.016Z,99893.31
2022-10-17T20:07:49.827Z,99891.81
2022-10-17T20:10:20.995Z,99897.31
2022-10-17T20:12:52.182Z,99884.03
2022-10-17T20:15:22.575Z,99887.84
2022-10-17T20:17:54.381Z,99897.63
2022-10-17T20:20:24.230Z,99895.94
2022-10-17T20:22:51.886Z,99898.75
2022-10-17T20:25:22.931Z,99905.53
2022-10-17T20:27:53.093Z,99911.66
2022-10-17T20:30:23.730Z,99905.78
2022-10-17T20:32:55.709Z,99909.16
2022-10-17T20:35:29.554Z,99904.84
2022-10-17T20:37:57.509Z,99901.50
2022-10-17T20:40:34.988Z,99919.06
2022-10-17T20:43:11.565Z,99912.47
2022-10-17T20:45:51.138Z,99921.78
2022-10-17T20:48:24.750Z,99915.63
2022-10-17T20:50:57.792Z,99911.16
2022-10-17T20:53:36.934Z,99917.09
2022-10-17T20:56:12.473Z,99913.88
2022-10-17T20:58:43.225Z,99907.56
2022-10-17T21:01:15.329Z,99911.81
2022-10-17T21:03:48.609Z,99916.91
2022-10-17T21:06:21.387Z,99922.00
2022-10-17T21:08:54.655Z,99926.38
2022-10-17T21:11:26.402Z,99923.22
2022-10-17T21:14:05.993Z,99921.22
2022-10-17T21:16:40.679Z,99925.13
2022-10-17T21:19:10.662Z,99926.78
2022-10-17T21:21:44.263Z,99928.16
2022-10-17T21:24:14.700Z,99929.28
2022-10-17T21:26:43.371Z,99931.94
2022-10-17T21:29:13.341Z,99917.91
2022-10-17T21:31:43.283Z,99921.50
2022-10-17T21:34:14.934Z,99929.81
2022-10-17T21:36:42.701Z,99928.53
2022-10-17T21:39:13.686Z,99923.75
2022-10-17T21:41:45.543Z,99927.16
2022-10-17T21:44:15.589Z,99925.03
2022-10-17T21:46:44.129Z,99924.56
2022-10-17T21:49:14.107Z,99925.03
2022-10-17T21:51:42.687Z,99915.56
2022-10-17T21:54:11.884Z,99913.84
2022-10-17T21:56:42.558Z,99922.88
2022-10-17T21:59:15.215Z,99920.63
2022-10-17T22:01:45.810Z,99929.03
2022-10-17T22:04:18.039Z,99920.03
2022-10-17T22:06:51.460Z,99918.38
2022-10-17T22:09:26.913Z,99922.38
2022-10-17T22:11:56.069Z,99933.28
2022-10-17T22:14:25.620Z,99926.31
2022-10-17T22:16:54.925Z,99925.28
2022-10-17T22:19:29.031Z,99931.63
2022-10-17T22:21:56.812Z,99927.97
2022-10-17T22:24:27.051Z,99929.34
2022-10-17T22:26:57.237Z,99930.47
2022-10-17T22:29:27.711Z,99933.91
2022-10-17T22:31:56.744Z,99930.56
2022-10-17T22:34:27.390Z,99931.63
2022-10-17T22:36:58.188Z,99931.31
2022-10-17T22:39:28.141Z,99924.81
2022-10-17T22:41:57.270Z,99926.63
2022-10-17T22:44:29.149Z,99937.53
2022-10-17T22:46:58.469Z,99939.19
2022-10-17T22:49:27.326Z,99928.59
2022-10-17T22:51:57.487Z,99939.91
2022-10-17T22:54:25.162Z,99933.91
2022-10-17T22:56:55.595Z,99951.47
2022-10-17T22:59:25.377Z,99938.91
2022-10-17T23:01:55.491Z,99944.50
2022-10-17T23:04:27.551Z,99941.47
2022-10-17T23:06:57.522Z,99935.59
2022-10-17T23:09:29.493Z,99923.84
2022-10-17T23:12:02.274Z,99929.66
2022-10-17T23:14:33.209Z,99928.81
2022-10-17T23:17:01.439Z,99931.69
2022-10-17T23:19:33.389Z,99934.34
2022-10-17T23:22:04.047Z,99932.50
2022-10-17T23:24:31.701Z,99935.41
2022-10-17T23:27:01.671Z,99932.91
2022-10-17T23:29:33.550Z,99930.44
2022-10-17T23:32:03.498Z,99940.03
2022-10-17T23:34:33.887Z,99939.72
2022-10-17T23:37:03.944Z,99944.88
2022-10-17T23:39:35.487Z,99939.06
2022-10-17T23:42:06.081Z,99932.47
2022-10-17T23:44:36.561Z,99931.47
2022-10-17T23:47:08.108Z,99927.81
2022-10-17T23:49:41.743Z,99926.47
2022-10-17T23:52:12.466Z,99919.88
2022-10-17T23:57:13.917Z,99922.16
2022-10-17T23:59:44.879Z,99928.16
